首页
METAR-TAF:

METAR-TAF

机场 :

乌鲁木齐地窝堡国际机场

乌鲁木齐, 中华人民共和国

纬度: 43-54N, 经度: 087-28E, 海拔: 654米

当前天气观测

该预报发布于26分钟前的01:30 UTC
风速6节,风向,在东南南转西南之间变化
温度 19°C
湿度 28%
气压 1022 hPa
能见度10公里或以上
1500米以下无云,无积雨云

METAR: ZWWW 260130Z 17003MPS 140V200 CAVOK 19/00 Q1022 NOSIG

时间: 07:56 (01:56 UTC)

预报

该预报发布于4小时和36分钟前的21:20 UTC
预报有效从26日的 00点(UTC)到 26日的 24点(UTC)
风速8节,风向
能见度10公里或以上
1500米以下无云,无积雨云
成为
从 26日的 02点(UTC)到 26日的 03点(UTC)
风速8节,风向
成为
从 26日的 13点(UTC)到 26日的 14点(UTC)
风速8节,风向南转南东,有时为17节阵风

TAF: ZWWW 252120Z 2600/2624 18004MPS CAVOK TX25/2609Z TN11/2623Z BECMG 2602/2603 36004MPS BECMG 2613/2614 16004G09MPS

超过4000个机场的气象观测和天气预报(METAR&TAF报告)。

可查询的气象台以黄色和红色小点在地图上表示。

将鼠标移到小点上方,可查看气象台名称。

然后点击查看天气观测和预报。

如需切换地图:点击带黑十字的绿色按钮放大地图;点击带横线的绿色按钮缩小地图;或者点击绿色箭头查看邻近地区的地图。


METAR-TAF: